createdAt,value
2022-11-02T00:02:11.202Z,101086.47
2022-11-02T00:04:39.788Z,101087.97
2022-11-02T00:07:11.777Z,101091.06
2022-11-02T00:09:42.812Z,101089.88
2022-11-02T00:12:12.286Z,101096.03
2022-11-02T00:14:40.729Z,101095.00
2022-11-02T00:17:10.679Z,101089.03
2022-11-02T00:19:41.955Z,101090.94
2022-11-02T00:22:10.234Z,101082.34
2022-11-02T00:24:39.182Z,101088.41
2022-11-02T00:27:11.348Z,101092.66
2022-11-02T00:29:41.168Z,101082.22
2022-11-02T00:32:09.619Z,101090.13
2022-11-02T00:34:39.531Z,101087.34
2022-11-02T00:37:08.078Z,101080.53
2022-11-02T00:39:36.537Z,101083.81
2022-11-02T00:42:10.198Z,101082.00
2022-11-02T00:44:39.885Z,101072.09
2022-11-02T00:47:12.866Z,101077.97
2022-11-02T00:49:43.927Z,101077.34
2022-11-02T00:52:17.430Z,101078.50
2022-11-02T00:54:50.790Z,101083.81
2022-11-02T00:57:21.289Z,101075.84
2022-11-02T00:59:49.519Z,101078.78
2022-11-02T01:02:19.223Z,101078.50
2022-11-02T01:04:48.309Z,101069.66
2022-11-02T01:07:18.480Z,101062.22
2022-11-02T01:09:47.012Z,101064.75
2022-11-02T01:12:15.249Z,101060.50
2022-11-02T01:14:46.965Z,101066.97
2022-11-02T01:17:20.370Z,101068.38
2022-11-02T01:19:48.778Z,101060.28
2022-11-02T01:22:17.580Z,101057.94
2022-11-02T01:24:45.992Z,101056.56
2022-11-02T01:27:16.050Z,101062.41
2022-11-02T01:29:47.036Z,101059.97
2022-11-02T01:32:16.827Z,101060.41
2022-11-02T01:34:47.127Z,101059.19
2022-11-02T01:37:18.801Z,101053.66
2022-11-02T01:39:47.859Z,101061.63
2022-11-02T01:42:22.640Z,101064.72
2022-11-02T01:44:54.615Z,101057.81
2022-11-02T01:47:27.454Z,101065.25
2022-11-02T01:50:00.605Z,101058.28
2022-11-02T01:52:35.885Z,101059.06
2022-11-02T01:55:10.429Z,101065.56
2022-11-02T01:57:41.177Z,101068.47
2022-11-02T02:00:15.125Z,101062.72
2022-11-02T02:02:49.778Z,101067.31
2022-11-02T02:05:23.416Z,101067.00
2022-11-02T02:07:53.620Z,101060.38
2022-11-02T02:10:28.528Z,101053.53
2022-11-02T02:12:57.481Z,101049.69
2022-11-02T02:15:37.249Z,101056.31
2022-11-02T02:18:21.398Z,101044.50
2022-11-02T02:21:13.520Z,101043.69
2022-11-02T02:23:59.422Z,101045.66
2022-11-02T02:26:55.495Z,101045.00
2022-11-02T02:29:31.687Z,101047.97
2022-11-02T02:32:06.834Z,101041.81
2022-11-02T02:34:42.026Z,101045.53
2022-11-02T02:37:18.369Z,101039.50
2022-11-02T02:39:54.668Z,101044.25
2022-11-02T02:42:28.430Z,101040.00
2022-11-02T02:45:08.796Z,101036.06
2022-11-02T02:47:44.341Z,101038.63
2022-11-02T02:50:20.777Z,101042.16
2022-11-02T02:52:53.923Z,101034.47
2022-11-02T02:55:28.798Z,101029.97
2022-11-02T02:57:59.088Z,101035.44
2022-11-02T03:00:41.801Z,101038.50
2022-11-02T03:03:13.011Z,101037.69
2022-11-02T03:05:42.089Z,101041.13
2022-11-02T03:08:13.177Z,101039.16
2022-11-02T03:10:49.510Z,101032.69
2022-11-02T03:13:36.300Z,101030.47
2022-11-02T03:16:18.383Z,101037.22
2022-11-02T03:18:54.293Z,101039.31
2022-11-02T03:21:34.327Z,101035.00
2022-11-02T03:24:10.650Z,101036.28
2022-11-02T03:26:49.226Z,101036.00
2022-11-02T03:29:23.365Z,101029.53
2022-11-02T03:31:58.089Z,101030.84
2022-11-02T03:34:33.387Z,101028.44
2022-11-02T03:37:14.514Z,101027.19
2022-11-02T03:39:49.401Z,101024.03
2022-11-02T03:42:23.895Z,101029.38
2022-11-02T03:44:59.446Z,101034.13
2022-11-02T03:47:40.049Z,101029.91
2022-11-02T03:50:18.246Z,101029.38
2022-11-02T03:52:50.267Z,101042.50
2022-11-02T03:55:22.317Z,101053.25
2022-11-02T03:57:53.665Z,101052.56
2022-11-02T04:00:34.663Z,101055.94
2022-11-02T04:03:08.803Z,101060.94
2022-11-02T04:05:42.800Z,101061.00
2022-11-02T04:08:37.353Z,101065.47
2022-11-02T04:11:28.860Z,101077.72
2022-11-02T04:14:21.201Z,101083.56
2022-11-02T04:17:11.840Z,101089.94
2022-11-02T04:19:49.705Z,101085.81
2022-11-02T04:22:38.930Z,101092.94
2022-11-02T04:25:18.472Z,101096.81
2022-11-02T04:28:08.976Z,101100.84
2022-11-02T04:30:52.502Z,101095.31
2022-11-02T04:33:33.983Z,101093.63
2022-11-02T04:36:24.973Z,101093.63
2022-11-02T04:38:56.749Z,101100.84
2022-11-02T04:41:43.806Z,101096.81
2022-11-02T04:44:37.384Z,101098.84
2022-11-02T04:47:18.310Z,101105.97
2022-11-02T04:49:48.210Z,101107.25
2022-11-02T04:52:22.023Z,101111.72
2022-11-02T04:54:53.118Z,101111.41
2022-11-02T04:57:22.266Z,101116.97
2022-11-02T04:59:51.439Z,101114.53
2022-11-02T05:02:20.670Z,101107.91
2022-11-02T05:04:49.689Z,101116.22
2022-11-02T05:07:25.599Z,101115.28
2022-11-02T05:09:55.470Z,101117.22
2022-11-02T05:12:28.995Z,101116.81
2022-11-02T05:14:57.812Z,101110.44
2022-11-02T05:17:27.863Z,101129.44
2022-11-02T05:19:57.504Z,101128.78
2022-11-02T05:22:27.348Z,101125.88
2022-11-02T05:24:59.440Z,101132.84
2022-11-02T05:27:28.361Z,101122.63
2022-11-02T05:29:59.988Z,101125.72
2022-11-02T05:32:29.667Z,101131.66
2022-11-02T05:35:01.240Z,101131.28
2022-11-02T05:37:32.994Z,101133.50
2022-11-02T05:40:02.580Z,101131.34
2022-11-02T05:42:39.465Z,101129.13
2022-11-02T05:45:10.507Z,101126.53
2022-11-02T05:47:38.724Z,101137.44
2022-11-02T05:50:07.794Z,101140.75
2022-11-02T05:52:38.721Z,101147.16
2022-11-02T05:55:09.136Z,101144.50
2022-11-02T05:57:40.080Z,101160.25
2022-11-02T06:00:13.219Z,101163.03
2022-11-02T06:02:43.025Z,101169.66
2022-11-02T06:05:13.330Z,101166.38
2022-11-02T06:07:43.802Z,101181.50
2022-11-02T06:10:13.131Z,101178.72
2022-11-02T06:12:41.864Z,101183.22
2022-11-02T06:15:11.310Z,101178.81
2022-11-02T06:17:40.958Z,101191.28
2022-11-02T06:20:11.171Z,101186.72
2022-11-02T06:22:43.975Z,101190.69
2022-11-02T06:25:15.693Z,101189.75
2022-11-02T06:27:52.244Z,101199.56
2022-11-02T06:30:22.817Z,101206.28
2022-11-02T06:32:53.993Z,101199.78
2022-11-02T06:35:23.876Z,101208.00
2022-11-02T06:37:54.216Z,101202.56
2022-11-02T06:40:25.699Z,101208.31
2022-11-02T06:43:15.396Z,101198.63
2022-11-02T06:45:46.363Z,101210.66
2022-11-02T06:48:16.537Z,101213.66
2022-11-02T06:50:44.831Z,101224.72
2022-11-02T06:53:15.302Z,101220.25
2022-11-02T06:55:44.062Z,101231.75
2022-11-02T06:58:12.509Z,101228.56
2022-11-02T07:00:41.093Z,101233.03
2022-11-02T07:03:11.871Z,101247.41
2022-11-02T07:05:43.839Z,101251.56
2022-11-02T07:08:16.578Z,101252.00
2022-11-02T07:10:48.023Z,101259.88
2022-11-02T07:13:20.277Z,101254.13
2022-11-02T07:15:52.959Z,101260.75
2022-11-02T07:18:22.114Z,101270.66
2022-11-02T07:20:51.334Z,101272.47
2022-11-02T07:23:23.967Z,101274.16
2022-11-02T07:26:05.007Z,101278.84
2022-11-02T07:28:33.385Z,101276.72
2022-11-02T07:31:01.985Z,101286.09
2022-11-02T07:33:30.232Z,101278.31
2022-11-02T07:35:58.914Z,101292.78
2022-11-02T07:38:29.728Z,101283.41
2022-11-02T07:40:58.059Z,101286.50
2022-11-02T07:43:27.254Z,101284.97
2022-11-02T07:46:03.003Z,101288.41
2022-11-02T07:48:33.623Z,101297.75
2022-11-02T07:51:02.172Z,101303.75
2022-11-02T07:53:32.455Z,101315.25
2022-11-02T07:56:01.184Z,101314.53
2022-11-02T07:58:30.351Z,101318.25
2022-11-02T08:01:00.608Z,101324.84
2022-11-02T08:03:31.078Z,101320.97
2022-11-02T08:06:03.199Z,101329.94
2022-11-02T08:08:33.350Z,101330.44
2022-11-02T08:11:06.442Z,101329.84
2022-11-02T08:13:35.660Z,101331.03
2022-11-02T08:16:04.375Z,101337.06
2022-11-02T08:18:35.033Z,101336.06
2022-11-02T08:21:03.280Z,101341.13
2022-11-02T08:23:34.129Z,101344.16
2022-11-02T08:26:02.706Z,101333.09
2022-11-02T08:28:36.024Z,101334.50
2022-11-02T08:31:08.607Z,101339.78
2022-11-02T08:33:36.709Z,101335.63
2022-11-02T08:36:05.810Z,101339.91
2022-11-02T08:38:35.861Z,101338.63
2022-11-02T08:41:04.623Z,101345.75
2022-11-02T08:43:33.150Z,101332.41
2022-11-02T08:46:18.762Z,101340.66
2022-11-02T08:48:47.153Z,101346.63
2022-11-02T08:51:16.536Z,101342.00
2022-11-02T08:53:51.633Z,101345.56
2022-11-02T08:56:22.884Z,101339.22
2022-11-02T08:58:53.223Z,101352.97
2022-11-02T09:01:23.505Z,101346.28
2022-11-02T09:03:52.173Z,101344.28
2022-11-02T09:06:21.637Z,101353.59
2022-11-02T09:08:53.799Z,101346.72
2022-11-02T09:11:25.224Z,101355.88
2022-11-02T09:13:56.846Z,101325.41
2022-11-02T09:16:25.790Z,101333.44
2022-11-02T09:18:56.669Z,101330.81
2022-11-02T09:21:27.300Z,101339.56
2022-11-02T09:24:00.085Z,101334.72
2022-11-02T09:26:28.794Z,101337.69
2022-11-02T09:28:57.144Z,101345.66
2022-11-02T09:31:25.536Z,101343.47
2022-11-02T09:33:54.206Z,101348.09
2022-11-02T09:36:25.158Z,101353.28
2022-11-02T09:38:53.725Z,101360.34
2022-11-02T09:41:31.972Z,101358.47
2022-11-02T09:44:10.895Z,101357.38
2022-11-02T09:46:42.239Z,101349.00
2022-11-02T09:49:17.135Z,101359.44
2022-11-02T09:51:50.345Z,101361.81
2022-11-02T09:54:23.368Z,101361.03
2022-11-02T09:56:59.475Z,101368.75
2022-11-02T09:59:29.679Z,101370.75
2022-11-02T10:02:06.434Z,101373.16
2022-11-02T10:05:18.055Z,101377.59
2022-11-02T10:08:29.702Z,101372.66
2022-11-02T10:11:09.883Z,101364.50
2022-11-02T10:13:45.399Z,101376.81
2022-11-02T10:16:18.901Z,101373.81
2022-11-02T10:18:50.809Z,101372.81
2022-11-02T10:21:22.129Z,101373.91
2022-11-02T10:23:53.791Z,101376.34
2022-11-02T10:26:26.940Z,101388.19
2022-11-02T10:29:07.393Z,101377.56
2022-11-02T10:31:35.987Z,101380.03
2022-11-02T10:34:21.063Z,101385.09
2022-11-02T10:36:59.527Z,101380.66
2022-11-02T10:39:37.854Z,101380.41
2022-11-02T10:42:18.726Z,101389.00
2022-11-02T10:45:13.926Z,101387.59
2022-11-02T10:47:48.746Z,101390.28
2022-11-02T10:50:48.852Z,101382.81
2022-11-02T10:53:39.966Z,101377.09
2022-11-02T10:56:17.052Z,101367.50
2022-11-02T10:58:50.698Z,101369.44
2022-11-02T11:01:20.681Z,101378.94
2022-11-02T11:04:00.118Z,101374.06
2022-11-02T11:06:38.122Z,101381.75
2022-11-02T11:09:14.703Z,101369.47
2022-11-02T11:11:52.846Z,101371.56
2022-11-02T11:20:25.889Z,101371.97
2022-11-02T11:23:20.339Z,101371.00
2022-11-02T11:26:09.612Z,101364.38
2022-11-02T11:28:40.732Z,101372.53
2022-11-02T11:31:14.194Z,101369.84
2022-11-02T11:33:51.473Z,101359.69
2022-11-02T11:38:58.264Z,101340.75
2022-11-02T11:41:26.881Z,101338.31
2022-11-02T11:43:55.932Z,101332.13
2022-11-02T11:46:25.557Z,101328.59
2022-11-02T11:48:59.948Z,101336.72
2022-11-02T11:51:33.057Z,101343.66
2022-11-02T11:54:23.830Z,101348.16
2022-11-02T11:56:54.868Z,101344.16
2022-11-02T11:59:32.342Z,101347.50
2022-11-02T12:02:03.872Z,101338.53
2022-11-02T12:04:37.951Z,101349.59
2022-11-02T12:07:31.042Z,101332.47
2022-11-02T12:10:11.741Z,101340.03
2022-11-02T12:13:04.456Z,101341.22
2022-11-02T12:15:50.381Z,101338.56
2022-11-02T12:18:33.442Z,101332.09
2022-11-02T12:21:16.706Z,101319.59
2022-11-02T12:24:06.257Z,101329.53
2022-11-02T12:26:50.848Z,101332.97
2022-11-02T12:29:38.328Z,101334.75
2022-11-02T12:32:16.945Z,101337.09
2022-11-02T12:38:17.399Z,101317.59
2022-11-02T12:40:56.267Z,101316.78
2022-11-02T12:43:37.217Z,101312.34
2022-11-02T12:46:14.193Z,101312.94
2022-11-02T12:48:55.059Z,101320.34
2022-11-02T12:51:30.003Z,101297.09
2022-11-02T12:54:07.599Z,101294.00
2022-11-02T12:56:45.097Z,101295.31
2022-11-02T12:59:18.860Z,101311.94
2022-11-02T13:01:52.626Z,101309.13
2022-11-02T13:04:29.519Z,101310.72
2022-11-02T13:07:07.525Z,101299.75
2022-11-02T13:09:41.007Z,101308.72
2022-11-02T13:12:15.354Z,101300.50
2022-11-02T13:14:47.696Z,101299.00
2022-11-02T13:17:23.002Z,101298.75
2022-11-02T13:19:56.324Z,101299.88
2022-11-02T13:22:29.975Z,101297.28
2022-11-02T13:25:08.898Z,101289.88
2022-11-02T13:27:43.425Z,101281.81
2022-11-02T13:30:18.704Z,101290.63
2022-11-02T13:32:52.683Z,101288.31
2022-11-02T13:35:28.426Z,101284.00
2022-11-02T13:38:04.841Z,101290.34
2022-11-02T13:40:41.502Z,101282.75
2022-11-02T13:43:39.710Z,101277.41
2022-11-02T13:46:20.695Z,101284.25
2022-11-02T13:48:58.367Z,101278.84
2022-11-02T13:51:34.724Z,101275.53
2022-11-02T13:54:11.897Z,101272.47
2022-11-02T13:56:43.511Z,101274.50
2022-11-02T13:59:22.765Z,101275.16
2022-11-02T14:01:56.333Z,101278.22
2022-11-02T14:04:26.905Z,101264.91
2022-11-02T14:06:59.073Z,101275.41
2022-11-02T14:09:36.244Z,101269.41
2022-11-02T14:12:43.603Z,101258.88
2022-11-02T14:15:48.763Z,101258.72
2022-11-02T14:18:31.691Z,101254.13
2022-11-02T14:21:21.121Z,101258.50
2022-11-02T14:23:49.634Z,101257.47
2022-11-02T14:26:59.114Z,101267.06
2022-11-02T14:29:49.782Z,101271.00
2022-11-02T14:32:27.648Z,101273.31
2022-11-02T14:35:09.624Z,101269.44
2022-11-02T14:37:56.066Z,101271.81
2022-11-02T14:40:32.569Z,101263.25
2022-11-02T14:43:35.774Z,101253.59
2022-11-02T14:46:22.991Z,101249.53
2022-11-02T14:48:54.007Z,101247.47
2022-11-02T14:51:25.988Z,101248.09
2022-11-02T14:53:58.358Z,101258.94
2022-11-02T14:56:53.342Z,101248.56
2022-11-02T14:59:28.247Z,101249.38
2022-11-02T15:02:02.004Z,101246.28
2022-11-02T15:04:36.367Z,101235.69
2022-11-02T15:07:07.275Z,101230.50
2022-11-02T15:09:56.556Z,101228.66
2022-11-02T15:12:32.775Z,101231.66
2022-11-02T15:15:18.542Z,101236.88
2022-11-02T15:18:22.509Z,101230.81
2022-11-02T15:21:24.586Z,101232.91
2022-11-02T15:24:17.645Z,101232.13
2022-11-02T15:26:52.308Z,101227.88
2022-11-02T15:29:44.973Z,101223.63
2022-11-02T15:32:22.545Z,101218.41
2022-11-02T15:34:56.274Z,101219.72
2022-11-02T15:37:29.544Z,101216.56
2022-11-02T15:40:00.528Z,101222.84
2022-11-02T15:42:39.724Z,101221.50
2022-11-02T15:45:47.764Z,101228.91
2022-11-02T15:48:32.730Z,101221.03
2022-11-02T15:51:11.534Z,101217.44
2022-11-02T15:54:00.259Z,101215.53
2022-11-02T15:56:48.627Z,101217.16
2022-11-02T15:59:43.038Z,101206.09
2022-11-02T16:02:26.506Z,101220.41
2022-11-02T16:04:57.957Z,101207.53
2022-11-02T16:07:38.277Z,101214.22
2022-11-02T16:10:25.214Z,101211.13
2022-11-02T16:13:01.793Z,101207.69
2022-11-02T16:15:30.741Z,101201.63
2022-11-02T16:18:00.043Z,101199.31
2022-11-02T16:20:30.206Z,101196.44
2022-11-02T16:23:08.370Z,101193.03
2022-11-02T16:25:40.431Z,101197.34
2022-11-02T16:28:20.862Z,101189.28
2022-11-02T16:31:17.312Z,101191.00
2022-11-02T16:33:49.348Z,101195.50
2022-11-02T16:36:20.576Z,101196.38
2022-11-02T16:38:59.450Z,101190.94
2022-11-02T16:41:30.203Z,101198.63
2022-11-02T16:44:01.660Z,101200.00
2022-11-02T16:46:32.458Z,101202.16
2022-11-02T16:49:18.498Z,101194.25
2022-11-02T16:51:52.797Z,101192.44
2022-11-02T16:54:31.896Z,101196.59
2022-11-02T16:57:08.638Z,101188.19
2022-11-02T16:59:53.220Z,101195.31
2022-11-02T17:02:31.619Z,101190.63
2022-11-02T17:05:05.852Z,101202.53
2022-11-02T17:07:40.415Z,101193.78
2022-11-02T17:10:20.845Z,101184.84
2022-11-02T17:12:50.054Z,101185.88
2022-11-02T17:15:20.611Z,101188.63
2022-11-02T17:17:50.023Z,101173.69
2022-11-02T17:20:21.873Z,101173.47
2022-11-02T17:22:52.996Z,101167.72
2022-11-02T17:25:25.458Z,101173.88
2022-11-02T17:27:56.188Z,101172.22
2022-11-02T17:30:45.031Z,101181.13
2022-11-02T17:33:28.650Z,101178.47
2022-11-02T17:36:04.570Z,101173.53
2022-11-02T17:38:32.980Z,101177.13
2022-11-02T17:41:23.279Z,101179.13
2022-11-02T17:43:52.005Z,101181.88
2022-11-02T17:46:20.939Z,101180.63
2022-11-02T17:48:49.564Z,101180.31
2022-11-02T17:51:24.248Z,101181.03
2022-11-02T17:53:52.733Z,101181.13
2022-11-02T17:56:23.616Z,101188.53
2022-11-02T17:58:52.377Z,101187.28
2022-11-02T18:01:21.023Z,101184.72
2022-11-02T18:03:51.048Z,101183.81
2022-11-02T18:06:19.818Z,101172.25
2022-11-02T18:09:06.292Z,101173.44
2022-11-02T18:11:36.378Z,101172.88
2022-11-02T18:14:05.032Z,101165.47
2022-11-02T18:16:33.848Z,101170.84
2022-11-02T18:19:02.194Z,101160.03
2022-11-02T18:21:32.159Z,101162.66
2022-11-02T18:24:01.098Z,101152.94
2022-11-02T18:26:32.626Z,101152.34
2022-11-02T18:29:04.272Z,101159.63
2022-11-02T18:31:33.267Z,101146.88
2022-11-02T18:34:02.321Z,101148.53
2022-11-02T18:36:30.817Z,101152.41
2022-11-02T18:38:59.034Z,101149.81
2022-11-02T18:41:32.006Z,101153.16
2022-11-02T18:44:07.828Z,101152.03
2022-11-02T18:46:41.737Z,101152.63
2022-11-02T18:49:10.265Z,101156.97
2022-11-02T18:51:42.849Z,101156.44
2022-11-02T18:54:12.093Z,101158.97
2022-11-02T18:56:40.727Z,101150.91
2022-11-02T18:59:11.285Z,101151.19
2022-11-02T19:01:40.674Z,101141.50
2022-11-02T19:04:14.454Z,101143.59
2022-11-02T19:07:03.265Z,101148.28
2022-11-02T19:09:33.076Z,101143.75
2022-11-02T19:12:04.316Z,101137.59
2022-11-02T19:14:36.587Z,101140.59
2022-11-02T19:17:06.537Z,101140.59
2022-11-02T19:19:35.616Z,101140.59
2022-11-02T19:22:04.374Z,101141.63
2022-11-02T19:24:33.134Z,101141.00
2022-11-02T19:27:02.313Z,101135.31
2022-11-02T19:29:30.739Z,101133.81
2022-11-02T19:32:00.537Z,101135.75
2022-11-02T19:34:29.123Z,101142.50
2022-11-02T19:36:57.455Z,101137.50
2022-11-02T19:39:27.005Z,101134.63
2022-11-02T19:41:55.713Z,101128.13
2022-11-02T19:44:24.729Z,101121.88
2022-11-02T19:46:53.743Z,101123.97
2022-11-02T19:49:23.547Z,101122.19
2022-11-02T19:51:52.049Z,101118.06
2022-11-02T19:54:23.165Z,101117.16
2022-11-02T19:56:51.769Z,101116.03
2022-11-02T19:59:22.557Z,101119.34
2022-11-02T20:01:52.312Z,101104.66
2022-11-02T20:04:21.544Z,101104.19
2022-11-02T20:06:51.872Z,101099.47
2022-11-02T20:09:21.675Z,101100.75
2022-11-02T20:11:49.983Z,101100.91
2022-11-02T20:14:19.805Z,101095.09
2022-11-02T20:16:58.726Z,101091.69
2022-11-02T20:19:38.175Z,101098.31
2022-11-02T20:22:07.848Z,101097.28
2022-11-02T20:24:36.574Z,101094.84
2022-11-02T20:27:06.883Z,101084.66
2022-11-02T20:30:17.346Z,101096.19
2022-11-02T20:33:04.226Z,101091.41
2022-11-02T20:39:40.066Z,101080.09
2022-11-02T20:42:09.390Z,101085.00
2022-11-02T20:44:37.796Z,101082.59
2022-11-02T20:47:06.476Z,101079.84
2022-11-02T20:49:50.021Z,101078.66
2022-11-02T20:52:21.984Z,101082.91
2022-11-02T20:54:52.454Z,101072.69
2022-11-02T20:57:22.401Z,101069.94
2022-11-02T20:59:50.805Z,101063.13
2022-11-02T21:02:22.148Z,101063.34
2022-11-02T21:10:43.815Z,101060.84
2022-11-02T22:08:40.172Z,101023.56
2022-11-02T22:11:09.300Z,101027.44
2022-11-02T22:13:39.097Z,101024.53
2022-11-02T22:16:14.547Z,101024.16
2022-11-02T22:18:44.365Z,101019.97
2022-11-02T22:23:49.936Z,101011.28
2022-11-02T22:26:18.440Z,101017.84
2022-11-02T22:28:47.279Z,101024.69
2022-11-02T22:31:15.968Z,101008.44
2022-11-02T22:33:49.092Z,101015.75
2022-11-02T22:36:17.984Z,101011.28
2022-11-02T22:38:48.575Z,101004.56
2022-11-02T23:51:18.012Z,100953.72
2022-11-02T23:54:05.203Z,100958.75
2022-11-02T23:56:44.481Z,100969.00
2022-11-02T23:59:14.904Z,100969.50
